Time;durP1;ratioP1;P1;durP2;ratioP2;P2;SDS_P1;SDS_P2;PMS_P1;PMS_P2;Temp;Humidity;BMP_temperature;BMP_pressure;BME280_temperature;BME280_humidity;BME280_pressure;Samples;Min_cycle;Max_cycle;Signal;HPM_P1;HPM_P2
2023/06/27 00:01:52;;;;;;;10.77;2.80;;;;;;;15.08;85.58;101848.69;5114177;28;20114;-85
2023/06/27 00:04:19;;;;;;;6.22;2.50;;;;;;;15.07;85.12;101839.66;5113869;28;20045;-85
2023/06/27 00:06:44;;;;;;;10.73;3.27;;;;;;;15.08;85.43;101848.69;5114224;28;20510;-85
2023/06/27 00:09:11;;;;;;;10.30;3.53;;;;;;;15.09;85.70;101844.91;5113691;28;20063;-85
2023/06/27 00:11:37;;;;;;;12.00;3.65;;;;;;;15.07;86.37;101847.00;5114158;28;20096;-86
2023/06/27 00:14:04;;;;;;;6.47;2.88;;;;;;;15.06;86.00;101840.72;5097345;28;20127;-86
2023/06/27 00:16:32;;;;;;;7.37;2.87;;;;;;;15.03;85.56;101835.69;5113340;28;20126;-86
2023/06/27 00:19:03;;;;;;;7.88;2.67;;;;;;;15.01;86.19;101837.78;5114725;28;20063;-86
2023/06/27 00:21:33;;;;;;;10.73;2.85;;;;;;;14.98;85.96;101840.13;5113779;28;20028;-85
2023/06/27 00:23:59;;;;;;;11.60;3.20;;;;;;;14.95;86.55;101841.41;5113646;28;20028;-86
2023/06/27 00:26:25;;;;;;;8.23;2.97;;;;;;;14.88;86.76;101841.47;5147927;27;20030;-85
2023/06/27 00:28:50;;;;;;;10.77;3.10;;;;;;;14.86;86.84;101846.31;5113557;28;20035;-85
2023/06/27 00:31:16;;;;;;;10.52;3.78;;;;;;;14.85;86.58;101847.38;5113374;28;20084;-85
2023/06/27 00:33:41;;;;;;;9.87;3.03;;;;;;;14.83;87.19;101841.28;5079688;28;20035;-86
2023/06/27 00:36:07;;;;;;;5.30;2.90;;;;;;;14.83;86.82;101848.66;5113418;28;20043;-86
2023/06/27 00:38:34;;;;;;;15.67;3.47;;;;;;;14.81;86.96;101842.56;5147754;27;20063;-85
2023/06/27 00:41:02;;;;;;;17.70;3.72;;;;;;;14.78;88.00;101841.13;5113607;28;20035;-86
2023/06/27 00:43:28;;;;;;;9.32;3.00;;;;;;;14.78;88.40;101837.53;5114837;28;20041;-85
2023/06/27 00:45:54;;;;;;;10.13;3.13;;;;;;;14.77;88.11;101847.63;5113280;28;20034;-85
2023/06/27 00:48:19;;;;;;;6.37;3.03;;;;;;;14.76;88.18;101837.75;5114032;28;20446;-85
2023/06/27 00:50:45;;;;;;;14.73;3.40;;;;;;;14.76;87.79;101840.47;5113010;28;20395;-85
2023/06/27 00:53:11;;;;;;;9.60;3.20;;;;;;;14.77;88.28;101846.78;5096153;28;20039;-85
2023/06/27 00:55:40;;;;;;;9.50;2.85;;;;;;;14.78;88.33;101848.44;5096077;28;20034;-85
2023/06/27 00:58:07;;;;;;;7.13;3.30;;;;;;;14.77;89.63;101844.06;5114374;28;20027;-85
2023/06/27 01:00:35;;;;;;;8.18;2.97;;;;;;;14.78;88.54;101853.91;5096166;28;20031;-85
2023/06/27 01:03:02;;;;;;;8.50;3.13;;;;;;;14.78;88.37;101849.31;5130132;27;20139;-85
2023/06/27 01:05:29;;;;;;;10.90;3.50;;;;;;;14.77;88.68;101855.00;5096822;28;20044;-85
2023/06/27 01:07:58;;;;;;;9.10;3.25;;;;;;;14.76;88.64;101845.94;5112918;28;20423;-85
2023/06/27 01:10:42;;;;;;;13.57;3.73;;;;;;;14.73;87.92;101858.16;5112906;28;20039;-85
2023/06/27 01:13:17;;;;;;;7.85;2.92;;;;;;;14.71;89.24;101854.78;5113823;28;20364;-85
2023/06/27 01:15:43;;;;;;;8.25;3.03;;;;;;;14.69;90.19;101858.78;5114029;28;20023;-85
2023/06/27 01:18:11;;;;;;;8.57;3.05;;;;;;;14.64;90.25;101840.34;5112401;28;20130;-84
2023/06/27 01:20:37;;;;;;;7.53;2.90;;;;;;;14.60;89.96;101850.00;5112723;28;20213;-85
2023/06/27 01:23:10;;;;;;;8.67;3.10;;;;;;;14.57;90.01;101844.97;5113747;28;20085;-85
2023/06/27 01:25:38;;;;;;;14.15;3.25;;;;;;;14.56;90.60;101848.75;5113010;28;20046;-85
2023/06/27 01:28:05;;;;;;;10.80;3.20;;;;;;;14.52;90.28;101845.63;5147194;27;20036;-85
2023/06/27 01:30:33;;;;;;;7.33;3.20;;;;;;;14.50;90.42;101855.09;5129766;27;20081;-85
2023/06/27 01:33:05;;;;;;;7.47;3.00;;;;;;;14.48;90.75;101851.72;5112789;28;20032;-86
2023/06/27 01:35:42;;;;;;;9.70;2.97;;;;;;;14.47;90.57;101848.19;5112510;28;20114;-89
2023/06/27 01:38:14;;;;;;;9.55;3.22;;;;;;;14.34;91.03;101829.94;5114070;28;20105;-88
2023/06/27 01:40:43;;;;;;;9.95;3.08;;;;;;;14.41;91.58;101856.38;5114023;28;20054;-88
2023/06/27 01:43:10;;;;;;;8.33;2.87;;;;;;;14.36;91.84;101851.56;5112974;28;20027;-88
2023/06/27 01:45:38;;;;;;;10.80;3.20;;;;;;;14.38;92.11;101841.28;5095789;28;20028;-88
2023/06/27 01:48:05;;;;;;;15.73;3.17;;;;;;;14.38;91.39;101842.13;5147610;27;20053;-88
2023/06/27 01:50:30;;;;;;;11.25;3.28;;;;;;;14.37;92.04;101848.63;5129934;27;20118;-87
2023/06/27 01:52:56;;;;;;;10.00;3.17;;;;;;;14.38;92.13;101844.84;5113518;28;20055;-88
2023/06/27 01:55:25;;;;;;;7.90;2.90;;;;;;;14.35;92.41;101841.69;5112773;28;20066;-88
2023/06/27 01:57:50;;;;;;;8.75;3.10;;;;;;;14.30;92.29;101827.88;5112715;28;20114;-88
2023/06/27 02:00:16;;;;;;;16.90;3.33;;;;;;;14.33;92.36;101832.91;5146748;27;20030;-88
2023/06/27 02:02:42;;;;;;;19.50;3.45;;;;;;;14.30;92.32;101836.06;5112473;28;20032;-88
2023/06/27 02:05:08;;;;;;;13.10;3.55;;;;;;;14.26;93.41;101829.34;5112165;28;20073;-88
2023/06/27 02:07:33;;;;;;;12.57;3.50;;;;;;;14.26;92.85;101827.47;5117033;28;20039;-88
2023/06/27 02:09:59;;;;;;;9.67;3.20;;;;;;;14.31;93.25;101838.56;5117942;28;20024;-88
2023/06/27 02:12:24;;;;;;;9.70;3.33;;;;;;;14.26;93.54;101832.09;5116323;28;20675;-88
2023/06/27 02:14:52;;;;;;;12.10;3.23;;;;;;;14.27;93.59;101841.97;5116198;28;20023;-88
2023/06/27 02:17:17;;;;;;;8.75;2.90;;;;;;;14.26;94.37;101830.22;5117106;28;20039;-88
2023/06/27 02:19:43;;;;;;;9.83;2.70;;;;;;;14.24;94.05;101826.00;5115819;28;20054;-88
2023/06/27 02:22:08;;;;;;;8.60;2.90;;;;;;;14.28;94.02;101830.00;5115832;28;20023;-88
2023/06/27 02:24:41;;;;;;;12.27;3.05;;;;;;;14.26;94.75;101824.75;5117049;28;20106;-88
2023/06/27 02:27:06;;;;;;;7.73;2.63;;;;;;;14.21;94.63;101822.66;5116537;28;20080;-88
2023/06/27 02:29:32;;;;;;;9.32;3.15;;;;;;;14.21;94.78;101817.19;5098940;28;20371;-88
2023/06/27 02:31:57;;;;;;;17.87;3.60;;;;;;;14.24;94.56;101815.09;5115972;28;20039;-88
2023/06/27 02:34:23;;;;;;;7.33;2.90;;;;;;;14.30;94.79;101833.34;5115899;28;20019;-88
2023/06/27 02:36:48;;;;;;;8.80;3.33;;;;;;;14.28;94.92;101821.81;5115804;28;20467;-88
2023/06/27 02:39:14;;;;;;;12.80;3.00;;;;;;;14.27;95.02;101817.38;5116710;28;20521;-88
2023/06/27 02:41:39;;;;;;;9.07;2.90;;;;;;;14.26;95.13;101816.56;5117296;28;20050;-88
2023/06/27 02:44:05;;;;;;;8.93;2.78;;;;;;;14.30;94.83;101823.25;5116682;28;20493;-88
2023/06/27 02:46:31;;;;;;;9.33;3.00;;;;;;;14.27;95.14;101815.50;5116920;28;20030;-88
2023/06/27 02:48:59;;;;;;;10.53;2.90;;;;;;;14.23;95.56;101821.59;5116612;28;20058;-88
2023/06/27 02:51:27;;;;;;;8.75;3.28;;;;;;;14.28;95.92;101830.81;5116574;28;20024;-88
2023/06/27 02:53:57;;;;;;;9.60;3.22;;;;;;;14.20;95.93;101812.81;5116787;28;20116;-88
2023/06/27 02:56:23;;;;;;;13.05;3.42;;;;;;;14.21;96.47;101819.91;5115774;28;20134;-88
2023/06/27 02:58:48;;;;;;;14.47;3.80;;;;;;;14.17;96.29;101815.97;5149926;27;20467;-88
2023/06/27 03:01:14;;;;;;;8.02;2.90;;;;;;;14.09;97.29;101808.00;5115299;28;20102;-87
2023/06/27 03:03:39;;;;;;;14.10;3.20;;;;;;;14.02;97.30;101813.50;5115038;28;20478;-88
2023/06/27 03:06:10;;;;;;;11.07;3.20;;;;;;;14.00;97.38;101821.03;5114985;28;20031;-88
2023/06/27 03:08:39;;;;;;;9.95;3.17;;;;;;;14.00;97.64;101829.22;5116837;28;20130;-88
2023/06/27 03:11:04;;;;;;;10.43;3.40;;;;;;;14.00;97.77;101836.59;5116267;28;20038;-88
2023/06/27 03:13:30;;;;;;;8.80;3.10;;;;;;;13.97;98.11;101826.94;5115156;28;20020;-88
2023/06/27 03:15:55;;;;;;;7.83;3.10;;;;;;;13.93;98.77;101817.50;5115891;28;20024;-88
2023/06/27 03:18:23;;;;;;;12.60;3.42;;;;;;;13.93;99.32;101822.13;5114686;28;20047;-88
2023/06/27 03:20:49;;;;;;;11.33;3.07;;;;;;;13.91;99.73;101827.78;5116113;28;20047;-88
2023/06/27 03:23:14;;;;;;;18.00;3.83;;;;;;;13.85;99.37;101815.84;5097925;28;20498;-88
2023/06/27 03:25:40;;;;;;;12.63;3.00;;;;;;;13.89;99.46;101835.34;5115155;28;20387;-88
2023/06/27 03:28:08;;;;;;;9.13;3.07;;;;;;;13.86;99.68;101827.59;5114686;28;20028;-88
2023/06/27 03:30:33;;;;;;;11.63;2.95;;;;;;;13.91;99.88;101832.44;5114532;28;20049;-88
2023/06/27 03:33:01;;;;;;;11.27;3.40;;;;;;;13.83;100.00;101825.28;5097752;28;20459;-87
2023/06/27 03:35:26;;;;;;;12.85;3.58;;;;;;;13.81;100.00;101825.50;5114648;28;20030;-87
2023/06/27 03:37:52;;;;;;;9.30;2.80;;;;;;;13.80;100.00;101826.56;5116504;28;20020;-88
2023/06/27 03:40:20;;;;;;;9.32;3.10;;;;;;;13.85;100.00;101834.94;5115442;28;20036;-88
2023/06/27 03:42:45;;;;;;;6.43;3.40;;;;;;;13.80;100.00;101836.63;5115848;28;20085;-88
2023/06/27 03:45:11;;;;;;;7.90;3.20;;;;;;;13.75;100.00;101829.09;5097780;28;20031;-88
2023/06/27 03:47:37;;;;;;;15.57;3.33;;;;;;;13.74;100.00;101827.41;5114581;28;20281;-87
2023/06/27 03:50:03;;;;;;;7.45;2.88;;;;;;;13.68;100.00;101829.09;5114093;28;20510;-88
2023/06/27 03:52:32;;;;;;;14.40;3.50;;;;;;;13.66;100.00;101828.47;5114303;28;20032;-88
2023/06/27 03:54:57;;;;;;;13.88;3.67;;;;;;;13.63;100.00;101834.34;5115640;28;20527;-88
2023/06/27 03:57:22;;;;;;;12.57;3.43;;;;;;;13.62;100.00;101840.84;5115262;28;20028;-88
2023/06/27 03:59:51;;;;;;;11.80;3.45;;;;;;;13.61;100.00;101841.91;5114126;28;20034;-88
2023/06/27 04:02:16;;;;;;;9.65;3.38;;;;;;;13.60;100.00;101832.03;5114406;28;20032;-88
2023/06/27 04:04:45;;;;;;;15.37;3.80;;;;;;;13.58;100.00;101838.75;5113945;28;20077;-88
2023/06/27 04:07:14;;;;;;;19.27;3.65;;;;;;;13.56;100.00;101847.16;5148717;27;20418;-89
2023/06/27 04:09:40;;;;;;;12.25;3.50;;;;;;;13.59;100.00;101845.91;5114144;28;20034;-88
2023/06/27 04:12:06;;;;;;;10.47;3.50;;;;;;;13.55;100.00;101840.00;5148206;27;20027;-88
2023/06/27 04:14:31;;;;;;;11.23;3.92;;;;;;;13.54;100.00;101835.63;5115137;27;20027;-88
2023/06/27 04:17:05;;;;;;;14.27;3.83;;;;;;;13.54;100.00;101838.34;5113654;28;20043;-88
2023/06/27 04:19:30;;;;;;;13.25;3.90;;;;;;;13.58;100.00;101842.34;5097438;28;20465;-88
2023/06/27 04:21:58;;;;;;;12.13;3.47;;;;;;;13.57;100.00;101843.38;5113983;28;20034;-88
2023/06/27 04:24:26;;;;;;;12.60;3.53;;;;;;;13.55;100.00;101834.56;5115290;28;20081;-88
2023/06/27 04:26:51;;;;;;;14.25;3.38;;;;;;;13.53;100.00;101844.00;5113742;28;20036;-88
2023/06/27 04:29:17;;;;;;;19.10;4.57;;;;;;;13.50;100.00;101840.66;5113364;28;20027;-88
2023/06/27 04:31:42;;;;;;;12.43;3.57;;;;;;;13.47;100.00;101835.63;5113606;28;20020;-88
2023/06/27 04:34:08;;;;;;;10.67;3.83;;;;;;;13.46;100.00;101831.22;5113500;28;20067;-88
2023/06/27 04:36:40;;;;;;;15.02;3.92;;;;;;;13.46;100.00;101838.56;5113214;28;20035;-88
2023/06/27 04:39:07;;;;;;;18.17;4.10;;;;;;;13.44;100.00;101843.38;5114004;28;20407;-88
2023/06/27 04:41:32;;;;;;;11.32;3.83;;;;;;;13.45;100.00;101839.59;5115015;28;20456;-88
2023/06/27 04:43:58;;;;;;;11.93;4.40;;;;;;;13.48;100.00;101842.75;5114376;28;20041;-88
2023/06/27 04:46:28;;;;;;;12.38;3.90;;;;;;;13.51;100.00;101860.59;5115182;28;20084;-88
2023/06/27 04:48:58;;;;;;;11.18;3.80;;;;;;;13.53;100.00;101854.91;5096931;28;20032;-88
2023/06/27 04:51:32;;;;;;;13.13;4.00;;;;;;;13.54;100.00;101857.44;5147537;27;20053;-88
2023/06/27 04:54:00;;;;;;;12.40;4.17;;;;;;;13.51;100.00;101858.69;5113540;28;20474;-88
2023/06/27 04:56:27;;;;;;;17.42;4.45;;;;;;;13.55;100.00;101852.81;5114190;27;20034;-88
2023/06/27 04:58:53;;;;;;;15.52;4.20;;;;;;;13.58;100.00;101866.88;5112827;28;20126;-88
2023/06/27 05:01:18;;;;;;;17.23;4.20;;;;;;;13.58;100.00;101849.66;5114563;28;20080;-95
2023/06/27 05:03:44;;;;;;;17.95;4.10;;;;;;;13.69;100.00;101857.22;5097342;28;20502;-92
2023/06/27 05:06:09;;;;;;;11.00;4.00;;;;;;;13.83;100.00;101858.00;5114482;28;20063;-92
2023/06/27 05:08:35;;;;;;;14.87;4.03;;;;;;;13.85;100.00;101850.47;5113391;28;20031;-92
2023/06/27 05:11:01;;;;;;;10.40;4.18;;;;;;;13.99;100.00;101863.00;5113905;28;20027;-93
2023/06/27 05:13:26;;;;;;;14.30;4.47;;;;;;;14.10;100.00;101867.00;5114106;28;20030;-92
2023/06/27 05:15:52;;;;;;;13.75;4.43;;;;;;;14.23;100.00;101865.28;5113114;28;20039;-93
2023/06/27 05:18:17;;;;;;;14.97;4.13;;;;;;;14.41;100.00;101859.97;5096332;28;20047;-91
2023/06/27 05:20:44;;;;;;;11.77;3.90;;;;;;;14.62;100.00;101860.75;5114909;28;20047;-90
2023/06/27 05:23:09;;;;;;;16.13;4.20;;;;;;;14.74;100.00;101862.56;5113083;28;20034;-91
2023/06/27 05:25:35;;;;;;;9.67;3.77;;;;;;;14.83;100.00;101862.31;5112596;28;20114;-91
2023/06/27 05:28:01;;;;;;;18.13;4.57;;;;;;;14.91;100.00;101856.56;5147436;27;20065;-91
2023/06/27 05:30:27;;;;;;;14.67;4.20;;;;;;;15.01;100.00;101867.84;5113746;28;20080;-91
2023/06/27 05:32:54;;;;;;;12.50;4.10;;;;;;;15.07;100.00;101857.94;5113788;28;20506;-91
2023/06/27 05:35:19;;;;;;;18.05;3.92;;;;;;;15.17;100.00;101865.66;5112796;28;20028;-93
2023/06/27 05:37:45;;;;;;;11.93;4.00;;;;;;;15.22;100.00;101855.75;5114670;28;20127;-92
2023/06/27 05:40:11;;;;;;;16.60;4.30;;;;;;;15.30;100.00;101867.47;5113227;28;20045;-92
2023/06/27 05:42:36;;;;;;;12.93;4.50;;;;;;;15.34;100.00;101849.53;5117145;28;20446;-90
2023/06/27 05:45:02;;;;;;;15.70;4.28;;;;;;;15.52;99.87;101852.34;5099576;28;20028;-91
2023/06/27 05:47:28;;;;;;;11.83;4.30;;;;;;;15.64;99.55;101851.63;5100106;28;20122;-92
2023/06/27 05:49:53;;;;;;;13.18;4.35;;;;;;;15.72;99.61;101859.50;5116841;28;20100;-92
2023/06/27 05:52:19;;;;;;;12.93;4.10;;;;;;;15.68;99.62;101850.06;5118292;28;20078;-92
2023/06/27 05:54:44;;;;;;;15.50;4.57;;;;;;;15.70;100.00;101851.53;5134306;27;20032;-92
2023/06/27 05:57:10;;;;;;;19.17;5.05;;;;;;;15.75;100.00;101856.31;5099640;28;20035;-92
2023/06/27 05:59:36;;;;;;;22.57;5.43;;;;;;;15.87;100.00;101859.19;5133525;27;20030;-91
2023/06/27 06:02:02;;;;;;;17.17;4.95;;;;;;;15.82;100.00;101859.03;5117634;28;20463;-91
2023/06/27 06:04:28;;;;;;;14.80;4.18;;;;;;;15.84;100.00;101859.63;5116773;28;20464;-92
2023/06/27 06:06:53;;;;;;;15.47;4.80;;;;;;;15.86;100.00;101863.00;5117946;28;20030;-91
2023/06/27 06:09:18;;;;;;;15.47;5.70;;;;;;;15.85;100.00;101843.00;5151818;27;20039;-93
2023/06/27 06:11:44;;;;;;;16.10;4.90;;;;;;;15.82;100.00;101846.19;5117004;28;20039;-92
2023/06/27 06:14:09;;;;;;;16.17;5.53;;;;;;;15.85;100.00;101845.72;5118206;28;20032;-93
2023/06/27 06:16:35;;;;;;;15.87;5.30;;;;;;;16.01;100.00;101860.72;5116557;28;20054;-93
2023/06/27 06:19:02;;;;;;;19.08;4.97;;;;;;;16.05;100.00;101837.31;5115795;28;20467;-94
2023/06/27 06:21:28;;;;;;;16.77;4.90;;;;;;;16.21;100.00;101854.19;5117020;28;20082;-93
2023/06/27 06:23:53;;;;;;;14.60;5.00;;;;;;;16.40;99.61;101860.50;5117524;28;20433;-94
2023/06/27 06:26:19;;;;;;;16.25;5.32;;;;;;;16.43;98.50;101846.31;5150129;27;20020;-93
2023/06/27 06:28:46;;;;;;;14.53;4.80;;;;;;;16.56;98.41;101848.88;5117219;28;20035;-93
2023/06/27 06:31:14;;;;;;;16.70;4.93;;;;;;;16.81;98.14;101867.13;5115647;28;20069;-93
2023/06/27 06:33:40;;;;;;;15.50;5.20;;;;;;;16.95;97.40;101857.66;5116615;28;20046;-93
2023/06/27 06:36:06;;;;;;;13.93;4.80;;;;;;;17.03;95.36;101852.94;5115820;28;20468;-93
2023/06/27 06:38:32;;;;;;;16.70;5.53;;;;;;;17.14;95.11;101866.66;5150447;27;20038;-93
2023/06/27 06:40:57;;;;;;;20.50;5.60;;;;;;;17.18;94.55;101869.75;5100190;28;20073;-94
2023/06/27 06:43:26;;;;;;;14.20;5.00;;;;;;;17.26;94.22;101877.66;5133000;27;20036;-93
2023/06/27 06:45:52;;;;;;;12.95;4.60;;;;;;;17.25;94.44;101880.63;5116440;28;20491;-94
2023/06/27 06:48:19;;;;;;;26.63;4.83;;;;;;;17.34;94.38;101881.97;5115614;28;20027;-93
2023/06/27 06:50:45;;;;;;;16.98;5.20;;;;;;;17.35;93.95;101876.25;5115947;28;20028;-93
2023/06/27 06:53:11;;;;;;;14.80;4.75;;;;;;;17.40;93.80;101870.03;5115804;28;20036;-93
2023/06/27 06:55:36;;;;;;;15.07;5.23;;;;;;;17.50;93.88;101875.78;5150074;27;20356;-93
2023/06/27 06:58:02;;;;;;;14.43;4.65;;;;;;;17.56;93.78;101865.78;5132830;27;20050;-94
2023/06/27 07:00:27;;;;;;;15.33;5.20;;;;;;;17.69;91.77;101875.69;5117162;28;20447;-93
2023/06/27 07:02:53;;;;;;;14.05;5.13;;;;;;;17.65;90.52;101869.00;5099235;28;20023;-92
2023/06/27 07:05:19;;;;;;;17.17;5.20;;;;;;;17.70;90.30;101880.09;5116567;28;20112;-94
2023/06/27 07:07:44;;;;;;;13.73;4.90;;;;;;;17.82;89.55;101872.69;5099312;28;20422;-94
2023/06/27 07:10:10;;;;;;;15.20;4.93;;;;;;;18.03;89.67;101870.44;5115331;28;20031;-94
2023/06/27 07:12:35;;;;;;;16.97;5.03;;;;;;;18.21;88.32;101873.03;5116934;28;20024;-94
2023/06/27 07:15:01;;;;;;;20.37;5.23;;;;;;;18.37;88.50;101870.63;5150057;27;20032;-94
2023/06/27 07:17:26;;;;;;;14.10;5.25;;;;;;;18.57;87.25;101881.19;5115383;28;20050;-93
2023/06/27 07:19:53;;;;;;;11.53;4.43;;;;;;;18.70;84.05;101888.31;5116566;28;20467;-94
2023/06/27 07:22:18;;;;;;;11.65;4.45;;;;;;;18.80;82.87;101893.19;5116568;28;20031;-94
2023/06/27 07:24:44;;;;;;;14.57;5.17;;;;;;;18.95;81.39;101878.94;5115448;28;20039;-94
2023/06/27 07:27:09;;;;;;;12.63;4.07;;;;;;;19.07;80.26;101876.94;5116470;28;20034;-93
2023/06/27 07:29:35;;;;;;;15.73;4.30;;;;;;;19.15;77.05;101878.44;5149641;27;20031;-93
2023/06/27 07:32:01;;;;;;;10.60;4.10;;;;;;;19.37;75.64;101881.28;5115241;28;20130;-93
2023/06/27 07:34:26;;;;;;;14.32;4.13;;;;;;;19.62;74.98;101870.72;5115196;28;20450;-93
2023/06/27 07:36:51;;;;;;;16.57;3.50;;;;;;;19.87;72.80;101872.22;5115330;28;20038;-93
2023/06/27 07:39:17;;;;;;;11.07;2.97;;;;;;;20.16;66.22;101881.16;5080840;28;20039;-94
2023/06/27 07:41:43;;;;;;;10.73;4.00;;;;;;;20.37;67.61;101869.56;5115026;28;20031;-94
2023/06/27 07:44:08;;;;;;;15.10;3.00;;;;;;;20.54;66.32;101867.56;5132077;27;20100;-93
2023/06/27 07:46:33;;;;;;;7.10;2.50;;;;;;;20.72;65.41;101874.69;5097710;28;20028;-92
2023/06/27 07:48:59;;;;;;;9.33;3.00;;;;;;;20.89;62.76;101877.38;5097985;28;20027;-93
2023/06/27 07:51:28;;;;;;;8.38;2.88;;;;;;;21.07;63.67;101869.78;5097837;28;20073;-92
2023/06/27 07:53:55;;;;;;;9.90;3.28;;;;;;;21.23;63.56;101866.09;5115564;28;20039;-93
2023/06/27 07:56:21;;;;;;;12.23;3.00;;;;;;;21.32;61.63;101863.69;5115816;28;20031;-94
2023/06/27 07:58:46;;;;;;;8.80;2.93;;;;;;;21.31;60.56;101870.31;5097522;28;20451;-93
2023/06/27 08:01:11;;;;;;;7.63;2.10;;;;;;;21.27;59.28;101860.88;5115858;28;20039;-94
2023/06/27 08:03:39;;;;;;;6.80;2.20;;;;;;;21.31;58.42;101860.09;5113715;28;20036;-93
2023/06/27 08:06:05;;;;;;;4.57;1.90;;;;;;;21.52;59.44;101871.31;5114366;28;20035;-94
2023/06/27 08:08:31;;;;;;;7.70;2.22;;;;;;;21.70;55.99;101868.16;5115029;28;20027;-94
2023/06/27 08:10:57;;;;;;;5.60;1.80;;;;;;;21.85;55.95;101864.66;5115669;28;20106;-93
2023/06/27 08:13:24;;;;;;;10.53;2.03;;;;;;;21.90;56.64;101866.59;5148922;27;20273;-92
2023/06/27 08:15:49;;;;;;;5.90;1.88;;;;;;;22.24;56.95;101863.47;5114103;28;20446;-94
2023/06/27 08:18:14;;;;;;;6.37;1.70;;;;;;;22.35;52.50;101865.22;5114197;28;20119;-94
2023/06/27 08:20:40;;;;;;;6.50;1.40;;;;;;;22.22;52.00;101857.38;5113558;28;20047;-94
2023/06/27 08:23:06;;;;;;;8.60;1.80;;;;;;;22.01;52.97;101848.16;5114786;28;20040;-93
2023/06/27 08:25:31;;;;;;;6.90;1.93;;;;;;;21.85;52.30;101853.59;5114564;28;20281;-93
2023/06/27 08:27:56;;;;;;;9.17;1.43;;;;;;;21.89;53.66;101853.88;5096817;28;20428;-94
2023/06/27 08:30:22;;;;;;;6.27;1.83;;;;;;;22.05;53.16;101852.88;5113970;28;20274;-94
2023/06/27 08:32:47;;;;;;;5.40;1.70;;;;;;;22.22;53.41;101862.91;5114999;28;20067;-93
2023/06/27 08:35:13;;;;;;;9.20;2.20;;;;;;;22.30;51.94;101864.31;5114205;28;20059;-93
2023/06/27 08:37:38;;;;;;;11.90;2.28;;;;;;;22.40;52.96;101858.88;5131453;27;20122;-93
2023/06/27 08:40:05;;;;;;;7.10;2.00;;;;;;;22.61;52.58;101862.53;5113473;28;20160;-93
2023/06/27 08:42:31;;;;;;;8.10;2.10;;;;;;;22.82;51.73;101863.41;5114077;28;20118;-93
2023/06/27 08:44:58;;;;;;;5.78;2.15;;;;;;;23.04;51.00;101848.50;5080286;28;20474;-93
2023/06/27 08:47:26;;;;;;;7.70;2.00;;;;;;;23.05;50.90;101861.22;5114353;28;20110;-94
2023/06/27 08:50:01;;;;;;;7.97;1.80;;;;;;;23.17;51.62;101842.44;5113765;28;20023;-94
2023/06/27 08:52:33;;;;;;;7.70;2.00;;;;;;;23.44;51.04;101856.00;5115139;28;20110;-94
2023/06/27 08:55:00;;;;;;;5.63;2.17;;;;;;;23.17;49.92;101847.16;5148206;27;20035;-93
2023/06/27 08:57:31;;;;;;;6.05;1.83;;;;;;;22.89;50.86;101844.59;5113490;28;20076;-93
2023/06/27 09:00:04;;;;;;;7.83;1.90;;;;;;;22.50;50.62;101850.59;5113303;28;20019;-93
2023/06/27 09:02:31;;;;;;;5.53;2.00;;;;;;;22.24;52.05;101850.47;5114667;28;20069;-93
2023/06/27 09:04:58;;;;;;;10.88;1.90;;;;;;;22.17;52.97;101844.34;5113125;28;20056;-94
2023/06/27 09:07:24;;;;;;;5.70;1.90;;;;;;;22.16;52.88;101847.38;5079815;28;20478;-94
2023/06/27 09:09:50;;;;;;;17.08;2.30;;;;;;;22.29;52.29;101838.59;5113500;28;20164;-94
2023/06/27 09:12:16;;;;;;;6.87;1.50;;;;;;;22.47;51.10;101837.34;5113370;28;20046;-94
2023/06/27 09:14:41;;;;;;;8.07;1.80;;;;;;;22.71;50.68;101854.25;5147391;27;20028;-94
2023/06/27 09:17:08;;;;;;;8.97;1.80;;;;;;;23.02;48.97;101842.41;5113111;28;20031;-93
2023/06/27 09:19:38;;;;;;;5.97;1.58;;;;;;;23.12;48.21;101848.00;5130189;27;20142;-94
2023/06/27 09:22:05;;;;;;;5.25;1.35;;;;;;;23.11;47.34;101849.91;5114863;28;20031;-93
2023/06/27 09:24:31;;;;;;;5.20;1.47;;;;;;;23.29;46.25;101845.75;5112691;28;20036;-94
2023/06/27 09:26:57;;;;;;;5.28;1.20;;;;;;;23.47;46.75;101836.06;5096250;28;20027;-94
2023/06/27 09:29:30;;;;;;;3.87;1.23;;;;;;;23.68;44.70;101855.44;5113116;28;20043;-94
2023/06/27 09:32:09;;;;;;;8.45;1.30;;;;;;;23.85;44.46;101840.41;5113407;28;20065;-93
2023/06/27 09:34:36;;;;;;;4.68;1.45;;;;;;;24.06;42.93;101852.31;5096323;28;20034;-94
2023/06/27 09:37:02;;;;;;;6.20;1.48;;;;;;;24.41;42.29;101848.53;5096436;28;20040;-94
2023/06/27 09:39:28;;;;;;;3.28;1.30;;;;;;;24.51;41.11;101836.56;5112461;28;20087;-94
2023/06/27 09:41:54;;;;;;;5.37;1.70;;;;;;;24.75;41.57;101849.78;5112936;28;20455;-93
2023/06/27 09:44:21;;;;;;;5.65;1.58;;;;;;;24.78;40.90;101854.75;5112899;28;20032;-94
2023/06/27 09:46:48;;;;;;;3.60;1.20;;;;;;;24.55;39.13;101843.19;5113076;28;20084;-92
2023/06/27 09:49:15;;;;;;;4.50;1.27;;;;;;;24.39;39.59;101852.72;5095609;28;20057;-92
2023/06/27 09:51:43;;;;;;;4.32;1.17;;;;;;;24.48;38.39;101860.16;5113583;28;20508;-90
2023/06/27 09:54:11;;;;;;;4.15;1.23;;;;;;;24.82;39.73;101866.94;5112640;28;20039;-93
2023/06/27 09:56:37;;;;;;;4.32;1.42;;;;;;;24.96;37.70;101870.72;5114105;28;20023;-93
2023/06/27 09:59:10;;;;;;;3.00;1.30;;;;;;;25.04;37.56;101864.56;5095973;28;20520;-93
2023/06/27 10:01:40;;;;;;;5.13;1.30;;;;;;;25.17;38.03;101862.22;5146657;27;20126;-93
2023/06/27 10:04:06;;;;;;;2.17;1.02;;;;;;;25.27;36.88;101862.16;5130108;28;20108;-94
2023/06/27 10:06:33;;;;;;;2.73;1.10;;;;;;;25.32;36.71;101850.19;5112942;28;20459;-94
2023/06/27 10:08:59;;;;;;;3.33;1.20;;;;;;;25.00;37.07;101854.31;5147009;27;20037;-93
2023/06/27 10:11:25;;;;;;;3.10;1.10;;;;;;;24.91;38.11;101859.66;5112809;28;20036;-94
2023/06/27 10:13:51;;;;;;;6.68;1.10;;;;;;;24.69;38.02;101841.47;5112584;28;20036;-95
2023/06/27 10:16:18;;;;;;;4.65;1.40;;;;;;;24.69;37.64;101866.44;5112663;28;20114;-93
2023/06/27 10:18:44;;;;;;;3.00;0.93;;;;;;;24.80;38.87;101855.28;5113863;28;20519;-93
2023/06/27 10:21:11;;;;;;;2.53;1.02;;;;;;;24.98;37.50;101857.38;5112498;28;20127;-94
2023/06/27 10:23:40;;;;;;;6.38;1.15;;;;;;;25.07;37.12;101856.75;5114034;28;20031;-93
2023/06/27 10:26:05;;;;;;;3.35;1.30;;;;;;;25.36;37.66;101848.50;5112637;28;20028;-95
2023/06/27 10:28:31;;;;;;;4.43;1.23;;;;;;;25.31;37.41;101852.16;5115762;28;20077;-95
2023/06/27 10:30:57;;;;;;;23.13;1.63;;;;;;;25.37;36.19;101870.41;5116675;28;20032;-94
2023/06/27 10:33:31;;;;;;;4.67;1.50;;;;;;;25.45;35.98;101855.06;5116880;28;20067;-94
2023/06/27 10:36:04;;;;;;;4.53;1.00;;;;;;;25.58;36.94;101856.34;5100292;28;20463;-93
2023/06/27 10:38:38;;;;;;;5.82;1.20;;;;;;;25.85;36.27;101846.59;5117696;28;20086;-92
2023/06/27 10:41:06;;;;;;;3.55;1.42;;;;;;;25.76;35.36;101859.50;5099739;28;20536;-94
2023/06/27 10:43:40;;;;;;;3.67;1.10;;;;;;;25.64;36.43;101848.78;5116231;28;20114;-94
2023/06/27 10:46:07;;;;;;;3.40;1.00;;;;;;;25.76;35.10;101837.28;5117642;28;20027;-96
2023/06/27 10:48:34;;;;;;;3.25;1.30;;;;;;;25.72;34.71;101840.63;5115767;28;20032;-94
2023/06/27 10:51:05;;;;;;;3.28;1.55;;;;;;;25.65;35.28;101848.50;5115920;28;20501;-92
2023/06/27 10:53:31;;;;;;;2.45;1.30;;;;;;;25.81;35.48;101848.34;5117328;28;20034;-93
2023/06/27 10:55:56;;;;;;;4.73;0.97;;;;;;;26.06;35.08;101847.25;5132721;27;20445;-93
2023/06/27 10:58:26;;;;;;;3.60;1.20;;;;;;;26.00;35.37;101840.91;5098603;28;20027;-93
2023/06/27 11:00:52;;;;;;;2.75;1.15;;;;;;;25.99;35.16;101846.75;5115939;28;20538;-93
2023/06/27 11:03:21;;;;;;;6.40;1.40;;;;;;;25.93;34.63;101840.41;5116152;28;20078;-94
2023/06/27 11:05:58;;;;;;;5.32;1.27;;;;;;;26.34;34.58;101856.63;5116951;28;20023;-94
2023/06/27 11:08:27;;;;;;;6.90;1.20;;;;;;;26.78;31.91;101858.28;5117186;27;20067;-94
2023/06/27 11:10:58;;;;;;;4.75;1.30;;;;;;;26.88;32.24;101851.69;5116860;28;20085;-92
2023/06/27 11:13:27;;;;;;;5.10;1.30;;;;;;;26.75;31.39;101861.66;5115778;28;20042;-93
2023/06/27 11:15:54;;;;;;;3.57;1.00;;;;;;;26.95;31.68;101868.84;5115650;28;20081;-91
2023/06/27 11:18:21;;;;;;;5.75;1.20;;;;;;;27.01;30.70;101843.72;5116388;28;20110;-91